Time;durP1;ratioP1;P1;durP2;ratioP2;P2;SDS_P1;SDS_P2;PMS_P1;PMS_P2;Temp;Humidity;BMP_temperature;BMP_pressure;BME280_temperature;BME280_humidity;BME280_pressure;Samples;Min_cycle;Max_cycle;Signal;HPM_P1;HPM_P2
2022/08/20 00:00:35;;;;;;;;;;;;;;;;;;5048549;28;19927;-53
2022/08/20 00:03:01;;;;;;;;;;;;;;;;;;5047616;28;20316;-53
2022/08/20 00:05:27;;;;;;;;;;;;;;;;;;5047753;28;19931;-53
2022/08/20 00:07:53;;;;;;;;;;;;;;;;;;5048442;28;20404;-52
2022/08/20 00:10:18;;;;;;;;;;;;;;;;;;5047978;28;19925;-54
2022/08/20 00:12:44;;;;;;;;;;;;;;;;;;5047718;28;20055;-52
2022/08/20 00:15:11;;;;;;;;;;;;;;;;;;5047819;28;20289;-55
2022/08/20 00:17:37;;;;;;;;;;;;;;;;;;5048169;28;20369;-56
2022/08/20 00:20:02;;;;;;;;;;;;;;;;;;5046693;28;20014;-56
2022/08/20 00:22:28;;;;;;;;;;;;;;;;;;5048311;28;19987;-52
2022/08/20 00:24:54;;;;;;;;;;;;;;;;;;5047449;28;19973;-54
2022/08/20 00:27:20;;;;;;;;;;;;;;;;;;5047649;28;20395;-51
2022/08/20 00:29:46;;;;;;;;;;;;;;;;;;5044681;28;19925;-56
2022/08/20 00:32:12;;;;;;;1.00;0.60;;;;;;;;;;5046593;28;19924;-50
2022/08/20 00:34:38;;;;;;;;;;;;;;;;;;5047908;28;19928;-52
2022/08/20 00:37:04;;;;;;;;;;;;;;;;;;5044285;28;19925;-55
2022/08/20 00:39:30;;;;;;;;;;;;;;;;;;5046768;28;19928;-51
2022/08/20 00:41:56;;;;;;;;;;;;;;;;;;5047676;28;19921;-61
2022/08/20 00:44:22;;;;;;;;;;;;;;;;;;5048153;28;20019;-54
2022/08/20 00:46:48;;;;;;;;;;;;;;;;;;5046731;28;19971;-53
2022/08/20 00:49:14;;;;;;;;;;;;;;;;;;5046973;28;20394;-51
2022/08/20 00:51:40;;;;;;;;;;;;;;;;;;5047719;28;19924;-54
2022/08/20 00:54:06;;;;;;;;;;;;;;;;;;5046189;28;20660;-51
2022/08/20 00:56:35;;;;;;;;;;;;;;;;;;5047605;28;20028;-53
2022/08/20 00:59:01;;;;;;;;;;;;;;;;;;5046929;28;19921;-52
2022/08/20 01:01:27;;;;;;;;;;;;;;;;;;5046640;28;20404;-54
2022/08/20 01:03:55;;;;;;;;;;;;;;;;;;5043501;28;19920;-53
2022/08/20 01:06:21;;;;;;;;;;;;;;;;;;5046986;28;20507;-55
2022/08/20 01:08:47;;;;;;;;;;;;;;;;;;5046450;28;20004;-53
2022/08/20 01:11:17;;;;;;;;;;;;;;;;;;5045928;28;19921;-54
2022/08/20 01:13:43;;;;;;;;;;;;;;;;;;5044877;28;19920;-56
2022/08/20 01:16:09;;;;;;;;;;;;;;;;;;5045754;28;19928;-50
2022/08/20 01:18:35;;;;;;;;;;;;;;;;;;5047108;28;19924;-53
2022/08/20 01:21:01;;;;;;;;;;;;;;;;;;5045759;28;19979;-57
2022/08/20 01:23:28;;;;;;;;;;;;;;;;;;5047048;28;20310;-53
2022/08/20 01:25:55;;;;;;;;;;;;;;;;;;5047018;28;19921;-53
2022/08/20 01:28:21;;;;;;;;;;;;;;;;;;5046283;28;19964;-52
2022/08/20 01:30:47;;;;;;;;;;;;;;;;;;5046601;28;19991;-56
2022/08/20 01:33:13;;;;;;;0.30;0.30;;;;;;;;;;5046134;28;19927;-51
2022/08/20 01:35:40;;;;;;;0.40;0.38;;;;;;;;;;5045739;28;20037;-51
2022/08/20 01:38:07;;;;;;;0.38;0.38;;;;;;;;;;5045594;28;20053;-55
2022/08/20 01:40:51;;;;;;;0.20;0.20;;;;;;;;;;5046170;28;20393;-53
2022/08/20 01:43:18;;;;;;;0.50;0.40;;;;;;;;;;5044271;28;20045;-51
2022/08/20 01:45:44;;;;;;;0.57;0.45;;;;;;;;;;5045851;28;20515;-53
2022/08/20 01:48:10;;;;;;;0.40;0.30;;;;;;;;;;5045756;28;20048;-52
2022/08/20 01:50:36;;;;;;;;;;;;;;;;;;5045818;28;19925;-52
2022/08/20 01:53:16;;;;;;;0.28;0.20;;;;;;;;;;5045234;28;19939;-53
2022/08/20 01:55:42;;;;;;;0.32;0.30;;;;;;;;;;5043640;28;20518;-50
2022/08/20 01:58:08;;;;;;;0.30;0.30;;;;;;;;;;5043908;28;20044;-49
2022/08/20 02:00:34;;;;;;;0.65;0.47;;;;;;;;;;5046169;28;20044;-48
2022/08/20 02:03:02;;;;;;;0.68;0.63;;;;;;;;;;5045133;28;20076;-50
2022/08/20 02:05:28;;;;;;;0.30;0.30;;;;;;;;;;5045014;28;20045;-50
2022/08/20 02:07:54;;;;;;;0.63;0.40;;;;;;;;;;5045686;28;20468;-54
2022/08/20 02:10:20;;;;;;;0.73;0.50;;;;;;;;;;5044530;28;20121;-53
2022/08/20 02:12:46;;;;;;;0.50;0.38;;;;;;;;;;5044984;28;20045;-53
2022/08/20 02:15:12;;;;;;;0.40;0.40;;;;;;;;;;5045281;28;20064;-53
2022/08/20 02:17:39;;;;;;;0.40;0.40;;;;;;;;;;5043988;28;20045;-52
2022/08/20 02:20:07;;;;;;;0.98;0.75;;;;;;;;;;5044219;28;20049;-48
2022/08/20 02:22:39;;;;;;;0.60;0.60;;;;;;;;;;5043637;28;20516;-48
2022/08/20 02:25:07;;;;;;;1.65;0.70;;;;;;;;;;5041215;28;20077;-48
2022/08/20 02:27:33;;;;;;;0.73;0.68;;;;;;;;;;5045510;28;20045;-51
2022/08/20 02:29:59;;;;;;;0.93;0.60;;;;;;;;;;5045038;28;20106;-53
2022/08/20 02:32:26;;;;;;;0.40;0.40;;;;;;;;;;5044754;28;20033;-49
2022/08/20 02:34:52;;;;;;;0.73;0.40;;;;;;;;;;5045399;28;20413;-48
2022/08/20 02:37:18;;;;;;;;;;;;;;;;;;5045237;28;20301;-53
2022/08/20 02:39:44;;;;;;;;;;;;;;;;;;5044601;28;19921;-50
2022/08/20 02:42:11;;;;;;;;;;;;;;;;;;5045299;28;19925;-57
2022/08/20 02:44:37;;;;;;;;;;;;;;;;;;5045856;28;19968;-55
2022/08/20 02:47:03;;;;;;;;;;;;;;;;;;5044116;28;19967;-52
2022/08/20 02:49:29;;;;;;;;;;;;;;;;;;5045219;28;19928;-53
2022/08/20 02:51:55;;;;;;;;;;;;;;;;;;5042998;28;19925;-51
2022/08/20 02:54:21;;;;;;;;;;;;;;;;;;5035100;28;19983;-55
2022/08/20 02:56:47;;;;;;;;;;;;;;;;;;5032893;28;19983;-53
2022/08/20 02:59:13;;;;;;;;;;;;;;;;;;5035640;28;20619;-56
2022/08/20 03:01:39;;;;;;;;;;;;;;;;;;5035657;28;19971;-50
2022/08/20 03:04:05;;;;;;;;;;;;;;;;;;5035229;28;20275;-53
2022/08/20 03:06:31;;;;;;;;;;;;;;;;;;5032833;28;20851;-56
2022/08/20 03:08:57;;;;;;;;;;;;;;;;;;5034365;28;20003;-55
2022/08/20 03:11:23;;;;;;;;;;;;;;;;;;5036331;28;20019;-50
2022/08/20 03:13:48;;;;;;;;;;;;;;;;;;5038335;28;19975;-53
2022/08/20 03:16:14;;;;;;;;;;;;;;;;;;5039310;28;20059;-50
2022/08/20 03:18:40;;;;;;;;;;;;;;;;;;5036794;28;20418;-52
2022/08/20 03:21:06;;;;;;;;;;;;;;;;;;5029723;28;19936;-50
2022/08/20 03:23:32;;;;;;;;;;;;;;;;;;5032404;28;20351;-52
2022/08/20 03:25:58;;;;;;;;;;;;;;;;;;5037454;28;19932;-54
2022/08/20 03:28:24;;;;;;;;;;;;;;;;;;5037767;28;19929;-52
2022/08/20 03:30:50;;;;;;;;;;;;;;;;;;5037304;28;19961;-52
2022/08/20 03:33:16;;;;;;;;;;;;;;;;;;5039503;28;19968;-52
2022/08/20 03:35:42;;;;;;;;;;;;;;;;;;5034386;28;19933;-54
2022/08/20 03:38:08;;;;;;;;;;;;;;;;;;5040704;28;20292;-55
2022/08/20 03:40:34;;;;;;;;;;;;;;;;;;5019683;28;19933;-55
2022/08/20 03:43:00;;;;;;;;;;;;;;;;;;5030142;28;19989;-55
2022/08/20 03:45:26;;;;;;;;;;;;;;;;;;5040838;28;19925;-60
2022/08/20 03:47:52;;;;;;;;;;;;;;;;;;5037877;28;19933;-52
2022/08/20 03:50:18;;;;;;;;;;;;;;;;;;5033399;28;19926;-52
2022/08/20 03:52:44;;;;;;;;;;;;;;;;;;5038360;28;19925;-50
2022/08/20 03:55:10;;;;;;;;;;;;;;;;;;5038382;28;20003;-52
2022/08/20 03:57:35;;;;;;;;;;;;;;;;;;5033955;28;19932;-52
2022/08/20 04:00:01;;;;;;;;;;;;;;;;;;5037096;28;19933;-58
2022/08/20 04:02:27;;;;;;;;;;;;;;;;;;5039394;28;19964;-53
2022/08/20 04:04:54;;;;;;;0.60;0.50;;;;;;;;;;5036306;28;20290;-53
2022/08/20 04:07:24;;;;;;;1.25;0.52;;;;;;;;;;5034585;28;20041;-52
2022/08/20 04:09:54;;;;;;;1.13;0.70;;;;;;;;;;5035658;28;20053;-52
2022/08/20 04:12:21;;;;;;;0.50;0.50;;;;;;;;;;5032552;28;20041;-52
2022/08/20 04:14:47;;;;;;;1.00;0.55;;;;;;;;;;5036410;28;20100;-50
2022/08/20 04:17:13;;;;;;;0.60;0.60;;;;;;;;;;5027345;28;20049;-54
2022/08/20 04:19:39;;;;;;;0.80;0.80;;;;;;;;;;5039090;28;20103;-50
2022/08/20 04:22:06;;;;;;;;;;;;;;;;;;5039515;28;20126;-52
2022/08/20 04:24:33;;;;;;;0.80;0.70;;;;;;;;;;5037237;28;19948;-49
2022/08/20 04:27:01;;;;;;;1.63;0.85;;;;;;;;;;5038693;28;20051;-53
2022/08/20 04:29:27;;;;;;;2.47;0.70;;;;;;;;;;5035923;28;20056;-52
2022/08/20 04:31:54;;;;;;;1.33;0.50;;;;;;;;;;5038479;28;20080;-47
2022/08/20 04:34:20;;;;;;;0.98;0.70;;;;;;;;;;5036525;28;20055;-50
2022/08/20 04:36:47;;;;;;;2.90;0.80;;;;;;;;;;5040629;28;20413;-53
2022/08/20 04:39:16;;;;;;;0.77;0.70;;;;;;;;;;5035130;28;20123;-55
2022/08/20 04:41:43;;;;;;;0.93;0.63;;;;;;;;;;5038289;28;20171;-52
2022/08/20 04:44:09;;;;;;;1.38;0.90;;;;;;;;;;5036675;28;20041;-56
2022/08/20 04:46:36;;;;;;;0.68;0.52;;;;;;;;;;5037901;28;20045;-51
2022/08/20 04:49:03;;;;;;;1.35;0.60;;;;;;;;;;5036370;28;20053;-57
2022/08/20 04:51:29;;;;;;;0.73;0.60;;;;;;;;;;5039320;28;20067;-49
2022/08/20 04:53:56;;;;;;;0.80;0.73;;;;;;;;;;5028445;28;20052;-57
2022/08/20 04:56:24;;;;;;;2.50;0.82;;;;;;;;;;5035501;28;20045;-54
2022/08/20 04:58:52;;;;;;;0.95;0.60;;;;;;;;;;5040176;28;20174;-50
2022/08/20 05:01:18;;;;;;;0.40;0.40;;;;;;;;;;5036823;28;20048;-54
2022/08/20 05:03:46;;;;;;;0.77;0.68;;;;;;;;;;5019369;28;20502;-49
2022/08/20 05:06:12;;;;;;;0.50;0.50;;;;;;;;;;5038117;28;20060;-53
2022/08/20 05:08:39;;;;;;;0.82;0.50;;;;;;;;;;5038009;28;20037;-51
2022/08/20 05:11:06;;;;;;;0.77;0.57;;;;;;;;;;5040169;28;20767;-52
2022/08/20 05:13:32;;;;;;;0.70;0.45;;;;;;;;;;5033849;28;20042;-50
2022/08/20 05:16:00;;;;;;;0.70;0.50;;;;;;;;;;5035110;28;20143;-52
2022/08/20 05:18:26;;;;;;;0.93;0.57;;;;;;;;;;5035503;28;20103;-53
2022/08/20 05:20:53;;;;;;;1.88;0.63;;;;;;;;;;5033257;28;20413;-53
2022/08/20 05:23:20;;;;;;;0.82;0.60;;;;;;;;;;5030275;28;20577;-49
2022/08/20 05:25:52;;;;;;;0.52;0.50;;;;;;;;;;5034459;28;20332;-56
2022/08/20 05:28:20;;;;;;;1.05;0.52;;;;;;;;;;5033150;28;20493;-52
2022/08/20 05:30:47;;;;;;;1.65;0.52;;;;;;;;;;5038271;28;20335;-59
2022/08/20 05:33:15;;;;;;;1.95;0.57;;;;;;;;;;5033523;28;20056;-53
2022/08/20 05:35:41;;;;;;;0.80;0.68;;;;;;;;;;5032529;28;20395;-52
2022/08/20 05:38:10;;;;;;;0.60;0.50;;;;;;;;;;5033348;28;20050;-55
2022/08/20 05:40:37;;;;;;;1.35;0.47;;;;;;;;;;5036690;28;20045;-54
2022/08/20 05:43:03;;;;;;;1.17;0.63;;;;;;;;;;5026591;28;20049;-52
2022/08/20 05:45:29;;;;;;;0.95;0.70;;;;;;;;;;5035060;28;20049;-50
2022/08/20 05:47:57;;;;;;;0.68;0.52;;;;;;;;;;5031336;28;20045;-50
2022/08/20 05:50:23;;;;;;;1.20;0.68;;;;;;;;;;5038309;28;20037;-53
2022/08/20 05:52:49;;;;;;;0.57;0.47;;;;;;;;;;5042030;28;20493;-52
2022/08/20 05:55:15;;;;;;;0.70;0.50;;;;;;;;;;5027521;28;20053;-49
2022/08/20 05:57:42;;;;;;;0.45;0.40;;;;;;;;;;5041873;28;20098;-51
2022/08/20 06:00:12;;;;;;;0.85;0.40;;;;;;;;;;5044831;28;20048;-51
2022/08/20 06:05:24;;;;;;;0.63;0.45;;;;;;;;;;5044394;28;20049;-53
2022/08/20 06:07:50;;;;;;;1.55;0.50;;;;;;;;;;5044649;28;20559;-52
2022/08/20 06:10:17;;;;;;;0.47;0.45;;;;;;;;;;5044170;28;20045;-52
2022/08/20 06:12:44;;;;;;;0.40;0.40;;;;;;;;;;5045544;28;20048;-51
2022/08/20 06:15:11;;;;;;;0.30;0.20;;;;;;;;;;5045141;28;20493;-51
2022/08/20 06:17:37;;;;;;;0.40;0.30;;;;;;;;;;5044656;28;20071;-54
2022/08/20 06:20:05;;;;;;;0.50;0.20;;;;;;;;;;5045102;28;20099;-50
2022/08/20 06:22:31;;;;;;;0.30;0.10;;;;;;;;;;5044565;28;20276;-52
2022/08/20 06:24:57;;;;;;;0.10;0.10;;;;;;;;;;5044617;28;20095;-55
2022/08/20 06:27:25;;;;;;;0.28;0.28;;;;;;;;;;5045257;28;20052;-49
2022/08/20 06:29:52;;;;;;;0.13;0.13;;;;;;;;;;5045685;28;20049;-51
2022/08/20 06:32:18;;;;;;;;;;;;;;;;;;5043131;28;20056;-51
2022/08/20 06:34:44;;;;;;;;;;;;;;;;;;5044914;28;19920;-55
2022/08/20 06:37:10;;;;;;;;;;;;;;;;;;5045136;28;20011;-49
2022/08/20 06:39:36;;;;;;;;;;;;;;;;;;5044673;28;19925;-56
2022/08/20 06:42:02;;;;;;;;;;;;;;;;;;5045466;28;19929;-55
2022/08/20 06:44:28;;;;;;;;;;;;;;;;;;5045227;28;19928;-53
2022/08/20 06:46:55;;;;;;;;;;;;;;;;;;5042682;28;20638;-50
2022/08/20 06:49:21;;;;;;;;;;;;;;;;;;5045175;28;19927;-52
2022/08/20 06:51:47;;;;;;;;;;;;;;;;;;5043815;28;19924;-55
2022/08/20 06:54:13;;;;;;;;;;;;;;;;;;5044779;28;19921;-49
2022/08/20 06:56:39;;;;;;;;;;;;;;;;;;5044834;28;19928;-52
2022/08/20 06:59:05;;;;;;;;;;;;;;;;;;5044424;28;19931;-53
2022/08/20 07:01:31;;;;;;;0.05;0.05;;;;;;;;;;5043933;28;19920;-55
2022/08/20 07:03:58;;;;;;;0.00;0.00;;;;;;;;;;5049968;28;20062;-55
2022/08/20 07:06:24;;;;;;;0.22;0.13;;;;;;;;;;5051084;28;20048;-50
2022/08/20 07:08:50;;;;;;;0.93;0.10;;;;;;;;;;5051392;28;20049;-51
2022/08/20 07:11:16;;;;;;;0.30;0.30;;;;;;;;;;5051222;28;20059;-55
2022/08/20 07:13:42;;;;;;;;;;;;;;;;;;5050912;28;19929;-52
2022/08/20 07:16:08;;;;;;;;;;;;;;;;;;5051429;28;19928;-55
2022/08/20 07:18:35;;;;;;;;;;;;;;;;;;5051656;28;19995;-50
2022/08/20 07:21:01;;;;;;;;;;;;;;;;;;5045271;28;20015;-57
2022/08/20 07:23:26;;;;;;;;;;;;;;;;;;5052820;28;20015;-55
2022/08/20 07:25:54;;;;;;;;;;;;;;;;;;5053188;28;20316;-56
2022/08/20 07:28:20;;;;;;;;;;;;;;;;;;5052051;28;19936;-55
2022/08/20 07:33:30;;;;;;;0.50;0.10;;;;;;;;;;5052023;28;20242;-51
2022/08/20 07:35:57;;;;;;;0.10;0.10;;;;;;;;;;5051427;28;20041;-57
2022/08/20 07:38:24;;;;;;;0.43;0.10;;;;;;;;;;5052243;28;20525;-51
2022/08/20 07:40:51;;;;;;;0.47;0.03;;;;;;;;;;5050988;28;20576;-51
2022/08/20 07:43:17;;;;;;;0.22;0.03;;;;;;;;;;5051873;28;20526;-53
2022/08/20 07:45:43;;;;;;;0.15;0.10;;;;;;;;;;5052081;28;20120;-53
2022/08/20 07:48:10;;;;;;;0.03;0.03;;;;;;;;;;5050883;28;20861;-49
2022/08/20 07:50:37;;;;;;;0.22;0.15;;;;;;;;;;5049395;28;20048;-52
2022/08/20 07:53:03;;;;;;;0.17;0.10;;;;;;;;;;5037101;28;20088;-54
2022/08/20 07:55:30;;;;;;;0.32;0.15;;;;;;;;;;5035199;28;20041;-53
2022/08/20 07:57:58;;;;;;;0.40;0.15;;;;;;;;;;5051979;28;20516;-59
2022/08/20 08:00:24;;;;;;;3.65;0.20;;;;;;;;;;5035377;28;20034;-51
2022/08/20 08:02:51;;;;;;;0.35;0.10;;;;;;;;;;5033912;28;20045;-52
2022/08/20 08:05:18;;;;;;;0.75;0.20;;;;;;;;;;5051828;28;20059;-54
2022/08/20 08:07:44;;;;;;;0.98;0.20;;;;;;;;;;5051921;28;20049;-57
2022/08/20 08:10:14;;;;;;;0.30;0.20;;;;;;;;;;5050685;28;20452;-52
2022/08/20 08:12:42;;;;;;;0.68;0.15;;;;;;;;;;5041904;28;20069;-53
2022/08/20 08:15:11;;;;;;;0.63;0.20;;;;;;;;;;5023931;28;20502;-56
2022/08/20 08:17:37;;;;;;;0.85;0.40;;;;;;;;;;5039681;28;20111;-58
2022/08/20 08:20:04;;;;;;;1.40;0.30;;;;;;;;;;5030471;28;20445;-54
2022/08/20 08:22:31;;;;;;;0.20;0.10;;;;;;;;;;5024960;28;20095;-50
2022/08/20 08:25:00;;;;;;;0.38;0.35;;;;;;;;;;5027601;28;20049;-53
2022/08/20 08:27:31;;;;;;;0.93;0.30;;;;;;;;;;5028663;28;20092;-58
2022/08/20 08:29:57;;;;;;;0.93;0.20;;;;;;;;;;5028431;28;20050;-54
2022/08/20 08:32:23;;;;;;;1.08;0.40;;;;;;;;;;5028121;28;20509;-51
2022/08/20 08:34:49;;;;;;;1.38;0.40;;;;;;;;;;5028350;28;20049;-54
2022/08/20 08:37:15;;;;;;;0.80;0.30;;;;;;;;;;5028057;28;20056;-55
2022/08/20 08:39:41;;;;;;;0.40;0.20;;;;;;;;;;5028436;28;20639;-51
2022/08/20 08:42:20;;;;;;;1.30;0.25;;;;;;;;;;5027615;28;20136;-56
2022/08/20 08:44:47;;;;;;;0.40;0.22;;;;;;;;;;5027521;28;20122;-55
2022/08/20 08:47:34;;;;;;;0.43;0.28;;;;;;;;;;5028157;28;20050;-54
2022/08/20 08:50:01;;;;;;;0.95;0.40;;;;;;;;;;5024083;28;20045;-52
2022/08/20 08:52:29;;;;;;;0.57;0.30;;;;;;;;;;5027629;28;20871;-53
2022/08/20 08:54:57;;;;;;;0.63;0.20;;;;;;;;;;5028462;28;20060;-53
2022/08/20 08:57:24;;;;;;;0.15;0.10;;;;;;;;;;5031831;28;20040;-52
2022/08/20 08:59:56;;;;;;;0.77;0.28;;;;;;;;;;5045129;28;20143;-53
2022/08/20 09:02:27;;;;;;;1.00;0.28;;;;;;;;;;5048105;28;20099;-58
2022/08/20 09:04:55;;;;;;;0.60;0.20;;;;;;;;;;5048170;28;20049;-53
2022/08/20 09:07:23;;;;;;;1.35;0.45;;;;;;;;;;5047377;28;20398;-51
2022/08/20 09:09:50;;;;;;;2.20;0.52;;;;;;;;;;5047596;28;20072;-50
2022/08/20 09:12:21;;;;;;;1.10;0.40;;;;;;;;;;5046990;28;20360;-54
2022/08/20 09:14:49;;;;;;;0.77;0.43;;;;;;;;;;5046509;28;20120;-53
2022/08/20 09:17:15;;;;;;;1.70;0.63;;;;;;;;;;5022431;28;20045;-52
2022/08/20 09:19:41;;;;;;;1.00;0.40;;;;;;;;;;5044505;28;20055;-56
2022/08/20 09:22:15;;;;;;;1.02;0.30;;;;;;;;;;5045120;28;20037;-54
2022/08/20 09:24:42;;;;;;;1.35;0.43;;;;;;;;;;5045068;28;20044;-55
2022/08/20 09:27:08;;;;;;;1.65;0.63;;;;;;;;;;5045290;28;20099;-53
2022/08/20 09:29:34;;;;;;;1.77;0.60;;;;;;;;;;5047107;28;20051;-52
2022/08/20 09:32:04;;;;;;;1.00;0.50;;;;;;;;;;5027142;28;20080;-56
2022/08/20 09:34:30;;;;;;;0.57;0.20;;;;;;;;;;5040027;28;20637;-50
2022/08/20 09:36:56;;;;;;;0.77;0.35;;;;;;;;;;5047153;28;20055;-60
2022/08/20 09:39:22;;;;;;;1.30;0.40;;;;;;;;;;5047618;28;20045;-56
2022/08/20 09:41:48;;;;;;;0.73;0.55;;;;;;;;;;5044816;28;20041;-53
2022/08/20 09:44:15;;;;;;;1.75;0.63;;;;;;;;;;5027742;28;20045;-55
2022/08/20 09:46:41;;;;;;;1.98;0.50;;;;;;;;;;5046211;28;20081;-55
2022/08/20 09:49:07;;;;;;;0.60;0.30;;;;;;;;;;5046048;28;20091;-53
2022/08/20 09:51:33;;;;;;;0.77;0.43;;;;;;;;;;5045434;28;20049;-54
2022/08/20 09:54:01;;;;;;;1.65;0.80;;;;;;;;;;5045482;28;20060;-51
2022/08/20 09:56:27;;;;;;;2.22;0.57;;;;;;;;;;5046229;28;20051;-53
2022/08/20 09:58:54;;;;;;;1.17;0.45;;;;;;;;;;5047020;28;20099;-55
2022/08/20 10:01:21;;;;;;;0.57;0.40;;;;;;;;;;5045613;28;20102;-54
2022/08/20 10:03:48;;;;;;;1.05;0.50;;;;;;;;;;5032299;28;20045;-55
2022/08/20 10:06:15;;;;;;;3.00;0.68;;;;;;;;;;5035931;28;20120;-53
2022/08/20 10:08:41;;;;;;;1.05;0.70;;;;;;;;;;5039870;28;20077;-52
2022/08/20 10:11:07;;;;;;;1.10;0.50;;;;;;;;;;5043494;28;20049;-56
2022/08/20 10:13:33;;;;;;;1.55;0.70;;;;;;;;;;5038557;28;20055;-53
2022/08/20 10:15:59;;;;;;;2.35;0.82;;;;;;;;;;5043603;28;20037;-53
2022/08/20 10:18:25;;;;;;;1.08;0.43;;;;;;;;;;5044953;28;20045;-55
2022/08/20 10:20:52;;;;;;;0.98;0.40;;;;;;;;;;5040269;28;20037;-51
2022/08/20 10:23:18;;;;;;;0.98;0.65;;;;;;;;;;5044037;28;20071;-52
2022/08/20 10:25:43;;;;;;;1.85;0.70;;;;;;;;;;5041789;28;20498;-51
2022/08/20 10:28:10;;;;;;;0.90;0.60;;;;;;;;;;5043850;28;20056;-53
2022/08/20 10:30:36;;;;;;;0.52;0.30;;;;;;;;;;5043553;28;20037;-52
2022/08/20 10:33:02;;;;;;;1.05;0.30;;;;;;;;;;5044742;28;20067;-56
2022/08/20 10:35:28;;;;;;;0.73;0.20;;;;;;;;;;5045956;28;20045;-51
2022/08/20 10:37:54;;;;;;;0.75;0.30;;;;;;;;;;5044619;28;20037;-55
2022/08/20 10:40:20;;;;;;;0.88;0.30;;;;;;;;;;5044474;28;20083;-54
2022/08/20 10:42:46;;;;;;;1.13;0.22;;;;;;;;;;5047146;28;20092;-56
2022/08/20 10:45:13;;;;;;;1.73;0.45;;;;;;;;;;5046104;28;20053;-53
2022/08/20 10:47:39;;;;;;;0.43;0.30;;;;;;;;;;5046901;28;20060;-55
2022/08/20 10:50:08;;;;;;;0.20;0.20;;;;;;;;;;5043768;28;20087;-55
2022/08/20 10:52:34;;;;;;;0.70;0.43;;;;;;;;;;5044242;28;20076;-54
2022/08/20 10:55:03;;;;;;;1.33;0.30;;;;;;;;;;5044574;28;20052;-53
2022/08/20 10:57:30;;;;;;;0.20;0.20;;;;;;;;;;5043648;28;20049;-55
2022/08/20 10:59:58;;;;;;;0.45;0.20;;;;;;;;;;5044031;28;20045;-62
2022/08/20 11:02:24;;;;;;;0.95;0.40;;;;;;;;;;5044684;28;20049;-52
2022/08/20 11:04:51;;;;;;;1.40;0.40;;;;;;;;;;5041651;28;20041;-52
2022/08/20 11:07:24;;;;;;;0.60;0.40;;;;;;;;;;5043743;28;20060;-53
2022/08/20 11:09:50;;;;;;;0.45;0.40;;;;;;;;;;5044224;28;20060;-51
2022/08/20 11:12:16;;;;;;;0.20;0.10;;;;;;;;;;5042797;28;20037;-57
2022/08/20 11:14:42;;;;;;;1.20;0.63;;;;;;;;;;5044324;28;20064;-55
2022/08/20 11:17:09;;;;;;;0.98;0.52;;;;;;;;;;5041341;28;20049;-52
2022/08/20 11:19:42;;;;;;;0.98;0.50;;;;;;;;;;5043632;28;20052;-53
2022/08/20 11:22:08;;;;;;;1.60;0.57;;;;;;;;;;5041518;28;20060;-55
2022/08/20 11:24:35;;;;;;;2.03;0.40;;;;;;;;;;5044288;28;20041;-51
2022/08/20 11:27:01;;;;;;;1.05;0.50;;;;;;;;;;5042781;28;20057;-54
2022/08/20 11:29:27;;;;;;;0.40;0.30;;;;;;;;;;5039942;28;20493;-54
2022/08/20 11:31:53;;;;;;;0.50;0.40;;;;;;;;;;5032159;28;20047;-53
2022/08/20 11:34:19;;;;;;;0.45;0.30;;;;;;;;;;5040029;28;20128;-52
2022/08/20 11:36:46;;;;;;;1.00;0.45;;;;;;;;;;5044612;28;20470;-58
2022/08/20 11:39:12;;;;;;;1.77;0.60;;;;;;;;;;5044647;28;20045;-54
2022/08/20 11:41:38;;;;;;;1.67;0.50;;;;;;;;;;5035588;28;20051;-51
2022/08/20 11:44:04;;;;;;;0.47;0.38;;;;;;;;;;5015150;28;20050;-53
2022/08/20 11:46:31;;;;;;;1.35;0.43;;;;;;;;;;5044445;28;20128;-50
2022/08/20 11:48:57;;;;;;;1.30;0.50;;;;;;;;;;5044673;28;20092;-53
2022/08/20 11:51:23;;;;;;;3.13;0.50;;;;;;;;;;5048357;28;20087;-49
2022/08/20 11:53:49;;;;;;;1.63;0.68;;;;;;;;;;5047980;28;20947;-53
2022/08/20 11:56:16;;;;;;;1.63;0.70;;;;;;;;;;5047272;28;20045;-52
2022/08/20 11:58:42;;;;;;;1.23;0.68;;;;;;;;;;5048411;28;20187;-54
2022/08/20 12:01:08;;;;;;;1.30;0.70;;;;;;;;;;5047422;28;20037;-52
2022/08/20 12:03:35;;;;;;;3.35;1.40;;;;;;;;;;5048432;28;20033;-54
2022/08/20 12:06:01;;;;;;;2.15;0.98;;;;;;;;;;5048008;28;20076;-54
2022/08/20 12:08:28;;;;;;;2.47;0.90;;;;;;;;;;5047376;28;20103;-57
2022/08/20 12:10:57;;;;;;;1.95;1.08;;;;;;;;;;5048289;28;19999;-52
2022/08/20 12:13:23;;;;;;;0.98;0.50;;;;;;;;;;5048110;28;20076;-52
2022/08/20 12:15:49;;;;;;;1.60;0.73;;;;;;;;;;5043737;28;20040;-55
2022/08/20 12:18:16;;;;;;;1.13;0.50;;;;;;;;;;5037779;28;20037;-52
2022/08/20 12:20:42;;;;;;;1.50;0.60;;;;;;;;;;5044092;28;20060;-53
2022/08/20 12:23:08;;;;;;;2.05;0.88;;;;;;;;;;5046338;28;20045;-55
2022/08/20 12:25:34;;;;;;;0.77;0.40;;;;;;;;;;5043379;28;20506;-56
2022/08/20 12:28:00;;;;;;;0.80;0.63;;;;;;;;;;5043276;28;20056;-50
2022/08/20 12:30:26;;;;;;;0.93;0.60;;;;;;;;;;5046449;28;20133;-59
2022/08/20 12:32:52;;;;;;;2.20;0.50;;;;;;;;;;5047334;28;20152;-50
2022/08/20 12:35:18;;;;;;;1.45;0.50;;;;;;;;;;5047725;28;20516;-52
2022/08/20 12:37:44;;;;;;;1.52;0.70;;;;;;;;;;5047283;28;20044;-53
2022/08/20 12:40:15;;;;;;;1.35;0.70;;;;;;;;;;5048151;28;20561;-50
2022/08/20 12:42:42;;;;;;;1.35;0.90;;;;;;;;;;5048418;28;20136;-51
2022/08/20 12:45:08;;;;;;;2.50;0.88;;;;;;;;;;5046433;28;20053;-55
2022/08/20 12:47:39;;;;;;;0.73;0.43;;;;;;;;;;5048030;28;20041;-51
2022/08/20 12:50:09;;;;;;;1.77;0.93;;;;;;;;;;5047693;28;20939;-56
2022/08/20 12:52:35;;;;;;;1.33;0.88;;;;;;;;;;5044411;28;20069;-57
2022/08/20 12:55:01;;;;;;;2.45;0.90;;;;;;;;;;5047242;28;20065;-51
2022/08/20 12:57:37;;;;;;;1.65;0.68;;;;;;;;;;5042611;28;20051;-51
2022/08/20 13:00:11;;;;;;;0.90;0.40;;;;;;;;;;5036478;28;20107;-57
2022/08/20 13:02:40;;;;;;;1.83;0.60;;;;;;;;;;5029663;28;20048;-54
2022/08/20 13:05:07;;;;;;;0.60;0.47;;;;;;;;;;5039464;28;20098;-57
2022/08/20 13:07:34;;;;;;;0.93;0.50;;;;;;;;;;5042855;28;20048;-53
2022/08/20 13:10:00;;;;;;;1.73;0.70;;;;;;;;;;5036622;28;20642;-52
2022/08/20 13:12:26;;;;;;;3.08;1.00;;;;;;;;;;5031433;28;20719;-60
2022/08/20 13:14:52;;;;;;;1.60;0.88;;;;;;;;;;5044716;28;20053;-55
2022/08/20 13:17:18;;;;;;;1.42;0.60;;;;;;;;;;5031984;28;20139;-57
2022/08/20 13:19:45;;;;;;;1.23;0.50;;;;;;;;;;5043529;28;20529;-55
2022/08/20 13:22:12;;;;;;;1.05;0.43;;;;;;;;;;5042483;28;20068;-52
2022/08/20 13:24:38;;;;;;;3.95;1.00;;;;;;;;;;5040743;28;20743;-53
2022/08/20 13:27:06;;;;;;;2.33;0.90;;;;;;;;;;5036789;28;20083;-58
2022/08/20 13:29:31;;;;;;;0.90;0.57;;;;;;;;;;5041655;28;20067;-52
2022/08/20 13:31:57;;;;;;;1.98;1.02;;;;;;;;;;5046149;28;20044;-53
2022/08/20 13:34:23;;;;;;;1.13;0.60;;;;;;;;;;5027729;28;20044;-56
2022/08/20 13:36:49;;;;;;;2.08;1.00;;;;;;;;;;5028930;28;20052;-50
2022/08/20 13:39:15;;;;;;;2.28;0.80;;;;;;;;;;5034172;28;20309;-53
2022/08/20 13:41:42;;;;;;;1.92;0.88;;;;;;;;;;5045821;28;20049;-52
2022/08/20 13:44:09;;;;;;;2.55;1.05;;;;;;;;;;5038570;28;20063;-56
2022/08/20 13:46:35;;;;;;;2.42;1.10;;;;;;;;;;5032861;28;20045;-54
2022/08/20 13:49:01;;;;;;;2.13;0.80;;;;;;;;;;5038905;28;20414;-55
2022/08/20 13:51:27;;;;;;;1.55;0.90;;;;;;;;;;5045266;28;20040;-53
2022/08/20 13:53:53;;;;;;;1.77;0.88;;;;;;;;;;5033113;28;20050;-56
2022/08/20 13:56:19;;;;;;;;;;;;;;;;;;5027197;28;20514;-54
2022/08/20 13:58:45;;;;;;;;;;;;;;;;;;5037272;28;19927;-57
2022/08/20 14:01:11;;;;;;;;;;;;;;;;;;5040834;28;19944;-52
2022/08/20 14:03:37;;;;;;;;;;;;;;;;;;5038537;28;20381;-59
2022/08/20 14:06:03;;;;;;;;;;;;;;;;;;5038079;28;19921;-52
2022/08/20 14:08:29;;;;;;;;;;;;;;;;;;5042820;28;19921;-55
2022/08/20 14:10:56;;;;;;;0.90;0.50;;;;;;;;;;5046666;28;19921;-53
2022/08/20 14:13:24;;;;;;;0.52;0.40;;;;;;;;;;5045672;28;20044;-52
2022/08/20 14:15:50;;;;;;;2.13;0.73;;;;;;;;;;5034539;28;20048;-50
2022/08/20 14:18:15;;;;;;;;;;;;;;;;;;5044098;28;20024;-50
2022/08/20 14:20:41;;;;;;;;;;;;;;;;;;5045634;28;19974;-52
2022/08/20 14:23:07;;;;;;;;;;;;;;;;;;5040408;28;19929;-59
2022/08/20 14:25:33;;;;;;;;;;;;;;;;;;5046225;28;19933;-50
2022/08/20 14:27:59;;;;;;;;;;;;;;;;;;5045374;28;19924;-56
2022/08/20 14:30:25;;;;;;;;;;;;;;;;;;5045425;28;20429;-52
2022/08/20 14:32:52;;;;;;;0.60;0.40;;;;;;;;;;5045193;28;19925;-55
2022/08/20 14:35:18;;;;;;;;;;;;;;;;;;5045597;28;20135;-53
2022/08/20 14:37:47;;;;;;;3.05;0.70;;;;;;;;;;5044686;28;20153;-52
2022/08/20 14:40:14;;;;;;;0.85;0.50;;;;;;;;;;5044542;28;20138;-57
2022/08/20 14:42:40;;;;;;;0.97;0.60;;;;;;;;;;5034536;28;20405;-54
2022/08/20 14:45:08;;;;;;;1.30;0.80;;;;;;;;;;5036905;28;20049;-54
2022/08/20 14:47:36;;;;;;;3.80;1.15;;;;;;;;;;5036577;28;20124;-50
2022/08/20 14:50:05;;;;;;;1.63;0.90;;;;;;;;;;5042226;28;20435;-56
2022/08/20 14:52:35;;;;;;;0.65;0.57;;;;;;;;;;5041717;28;20064;-53
2022/08/20 14:55:01;;;;;;;2.42;0.95;;;;;;;;;;5042806;28;20102;-54
2022/08/20 14:57:27;;;;;;;4.18;1.00;;;;;;;;;;5039900;28;20493;-54
2022/08/20 14:59:53;;;;;;;1.55;0.73;;;;;;;;;;5037940;28;20481;-52
2022/08/20 15:02:19;;;;;;;1.33;0.70;;;;;;;;;;5035027;28;20447;-54
2022/08/20 15:04:45;;;;;;;1.33;0.50;;;;;;;;;;5040030;28;20521;-56
2022/08/20 15:07:31;;;;;;;1.58;0.40;;;;;;;;;;5033121;28;20041;-54
2022/08/20 15:09:59;;;;;;;0.88;0.30;;;;;;;;;;5044495;28;20134;-52
2022/08/20 15:12:25;;;;;;;0.43;0.40;;;;;;;;;;5042835;28;20074;-54
2022/08/20 15:14:51;;;;;;;0.95;0.50;;;;;;;;;;5043895;28;20076;-56
2022/08/20 15:17:18;;;;;;;1.45;0.50;;;;;;;;;;5037026;28;20724;-54